createdAt,value
2023-04-04T00:19:23.004Z,5.09
2023-04-04T00:24:26.883Z,5.05
2023-04-04T00:29:30.152Z,5.02
2023-04-04T00:34:33.736Z,4.96
2023-04-04T00:39:37.025Z,4.93
2023-04-04T00:44:40.875Z,4.89
2023-04-04T00:49:46.666Z,4.84
2023-04-04T00:54:50.636Z,4.79
2023-04-04T00:59:53.878Z,4.76
2023-04-04T01:04:57.189Z,4.72
2023-04-04T01:10:02.719Z,4.65
2023-04-04T01:15:06.847Z,4.58
2023-04-04T01:20:17.956Z,4.54
2023-04-04T01:25:34.900Z,4.52
2023-04-04T01:30:45.895Z,4.51
2023-04-04T01:36:23.130Z,4.50
2023-04-04T01:41:29.282Z,4.53
2023-04-04T01:46:37.230Z,4.52
2023-04-04T01:51:41.657Z,4.47
2023-04-04T01:56:46.403Z,4.43
2023-04-04T02:01:50.188Z,4.42
2023-04-04T02:06:53.526Z,4.43
2023-04-04T02:11:57.617Z,4.44
2023-04-04T02:17:00.833Z,4.41
2023-04-04T02:22:04.630Z,4.39
2023-04-04T02:27:08.222Z,4.39
2023-04-04T02:32:11.910Z,4.40
2023-04-04T02:37:15.223Z,4.39
2023-04-04T02:42:19.190Z,4.39
2023-04-04T02:47:23.069Z,4.39
2023-04-04T02:52:26.912Z,4.36
2023-04-04T02:57:31.986Z,4.33
2023-04-04T03:02:35.734Z,4.31
2023-04-04T03:07:39.258Z,4.31
2023-04-04T03:12:42.672Z,4.37
2023-04-04T03:17:46.945Z,4.42
2023-04-04T03:22:50.574Z,4.46
2023-04-04T03:27:53.915Z,4.51
2023-04-04T03:32:59.526Z,4.52
2023-04-04T03:38:03.693Z,4.52
2023-04-04T03:43:07.875Z,4.54
2023-04-04T03:48:11.650Z,4.53
2023-04-04T03:53:16.527Z,4.52
2023-04-04T03:58:19.935Z,4.47
2023-04-04T04:03:23.487Z,4.47
2023-04-04T04:08:27.990Z,4.50
2023-04-04T04:13:31.369Z,4.52
2023-04-04T04:18:35.463Z,4.52
2023-04-04T04:23:39.619Z,4.48
2023-04-04T04:28:43.099Z,4.44
2023-04-04T04:33:50.762Z,4.43
2023-04-04T04:38:55.656Z,4.42
2023-04-04T04:44:01.168Z,4.38
2023-04-04T04:49:05.445Z,4.37
2023-04-04T04:54:09.005Z,4.34
2023-04-04T04:59:16.013Z,4.32
2023-04-04T05:04:20.503Z,4.31
2023-04-04T05:09:39.602Z,4.32
2023-04-04T05:14:43.025Z,4.33
2023-04-04T05:19:46.712Z,4.31
2023-04-04T05:24:53.348Z,4.26
2023-04-04T05:29:59.201Z,4.27
2023-04-04T05:35:07.454Z,4.29
2023-04-04T05:40:11.738Z,4.27
2023-04-04T05:45:15.474Z,4.24
2023-04-04T05:50:18.868Z,4.25
2023-04-04T05:55:25.496Z,4.27
2023-04-04T06:00:31.291Z,4.32
2023-04-04T06:05:39.404Z,4.36
2023-04-04T06:10:42.823Z,4.40
2023-04-04T06:15:46.493Z,4.48
2023-04-04T06:20:49.743Z,4.56
2023-04-04T06:25:54.303Z,4.56
2023-04-04T06:30:58.868Z,4.59
2023-04-04T06:36:11.335Z,4.64
2023-04-04T06:41:14.749Z,4.70
2023-04-04T06:46:18.474Z,4.75
2023-04-04T06:51:22.215Z,4.86
2023-04-04T06:56:27.197Z,4.95
2023-04-04T07:01:34.839Z,5.05
2023-04-04T07:06:38.207Z,5.12
2023-04-04T07:11:42.017Z,5.15
2023-04-04T07:16:45.389Z,5.19
2023-04-04T07:21:48.628Z,5.23
2023-04-04T07:26:52.240Z,5.25
2023-04-04T07:31:55.498Z,5.31
2023-04-04T07:36:58.739Z,5.37
2023-04-04T07:42:02.449Z,5.44
2023-04-04T07:47:09.836Z,5.51
2023-04-04T07:52:58.710Z,5.56
2023-04-04T07:58:02.750Z,5.65
2023-04-04T08:03:07.181Z,5.75
2023-04-04T08:08:28.116Z,5.87
2023-04-04T08:13:31.739Z,5.96
2023-04-04T08:18:35.195Z,6.02
2023-04-04T08:23:42.142Z,6.07
2023-04-04T08:28:45.655Z,6.14
2023-04-04T08:33:48.855Z,6.25
2023-04-04T08:38:52.091Z,6.29
2023-04-04T08:43:58.075Z,6.40
2023-04-04T08:49:04.435Z,6.57
2023-04-04T08:54:09.534Z,6.70
2023-04-04T08:59:16.114Z,6.79
2023-04-04T09:04:21.961Z,6.84
2023-04-04T09:09:25.365Z,6.86
2023-04-04T09:14:30.653Z,6.89
2023-04-04T09:19:34.118Z,6.98
2023-04-04T09:24:42.725Z,7.14
2023-04-04T09:36:02.702Z,7.27
2023-04-04T09:41:12.375Z,7.38
2023-04-04T09:46:19.596Z,7.46
2023-04-04T09:51:23.005Z,7.37
2023-04-04T09:56:28.183Z,7.39
2023-04-04T10:01:33.799Z,7.54
2023-04-04T10:06:38.029Z,7.62
2023-04-04T10:11:41.439Z,7.69
2023-04-04T10:16:45.925Z,7.65
2023-04-04T10:21:49.457Z,7.62
2023-04-04T10:26:54.387Z,7.74
2023-04-04T10:32:05.568Z,7.88
2023-04-04T10:37:16.928Z,7.92
2023-04-04T10:42:20.273Z,7.92
2023-04-04T10:47:26.622Z,7.89
2023-04-04T10:52:31.446Z,7.99
2023-04-04T10:57:43.207Z,8.21
2023-04-04T11:03:00.626Z,8.42
2023-04-04T11:08:09.478Z,8.45
2023-04-04T11:13:29.510Z,8.39
2023-04-04T11:18:34.337Z,8.36
2023-04-04T11:23:49.601Z,8.31
2023-04-04T11:28:56.482Z,8.26
2023-04-04T11:34:08.223Z,8.21
2023-04-04T11:39:27.190Z,8.20
2023-04-04T11:44:33.183Z,8.19
2023-04-04T11:49:37.403Z,8.23
2023-04-04T11:54:43.967Z,8.28
2023-04-04T11:59:49.737Z,8.33
2023-04-04T12:04:53.865Z,8.43
2023-04-04T12:09:57.934Z,8.66
2023-04-04T12:15:10.812Z,8.82
2023-04-04T12:20:23.797Z,8.97
2023-04-04T12:25:28.687Z,9.04
2023-04-04T12:30:33.434Z,9.00
2023-04-04T12:35:38.101Z,9.02
2023-04-04T12:40:42.312Z,9.05
2023-04-04T12:45:45.561Z,9.13
2023-04-04T12:50:52.229Z,9.15
2023-04-04T12:56:00.177Z,9.07
2023-04-04T13:01:04.391Z,9.05
2023-04-04T13:06:17.232Z,9.11
2023-04-04T13:11:21.111Z,9.10
2023-04-04T13:16:37.483Z,9.10
2023-04-04T13:21:41.088Z,8.99
2023-04-04T13:26:44.438Z,8.98
2023-04-04T13:31:47.899Z,9.02
2023-04-04T13:36:51.564Z,8.94
2023-04-04T13:41:54.795Z,8.68
2023-04-04T13:46:58.408Z,8.54
2023-04-04T13:52:01.832Z,8.42
2023-04-04T13:57:05.076Z,8.35
2023-04-04T14:02:09.497Z,8.27
2023-04-04T14:07:15.730Z,8.29
2023-04-04T14:17:57.927Z,8.15
2023-04-04T14:23:01.718Z,8.06
2023-04-04T14:28:09.220Z,7.97
2023-04-04T14:33:13.881Z,7.89
2023-04-04T14:42:52.722Z,7.73
2023-04-04T14:47:57.065Z,7.65
2023-04-04T14:53:01.096Z,7.58
2023-04-04T14:58:04.629Z,7.46
2023-04-04T15:03:08.966Z,7.34
2023-04-04T15:08:12.984Z,7.27
2023-04-04T15:13:17.058Z,7.12
2023-04-04T15:18:20.876Z,7.12
2023-04-04T15:23:24.916Z,7.06
2023-04-04T15:28:28.845Z,7.00
2023-04-04T15:33:33.231Z,6.94
2023-04-04T15:43:01.622Z,6.86
2023-04-04T15:48:12.003Z,6.86
2023-04-04T15:58:43.955Z,6.80
2023-04-04T16:03:52.169Z,6.76
2023-04-04T16:09:17.053Z,6.67
2023-04-04T16:14:24.474Z,6.57
2023-04-04T16:19:39.478Z,6.54
2023-04-04T16:24:50.956Z,6.51
2023-04-04T17:45:33.335Z,5.76
2023-04-04T17:50:44.157Z,5.69
2023-04-04T17:55:47.995Z,5.65
2023-04-04T18:00:53.049Z,5.62
2023-04-04T18:05:57.269Z,5.60
2023-04-04T18:11:00.850Z,5.59
2023-04-04T18:16:06.337Z,5.58
2023-04-04T18:21:10.027Z,5.61
2023-04-04T18:26:13.285Z,5.64
2023-04-04T18:31:16.710Z,5.64
2023-04-04T18:36:20.159Z,5.63
2023-04-04T18:41:23.682Z,5.67
2023-04-04T19:46:09.691Z,5.43
2023-04-04T19:51:15.738Z,5.40
2023-04-04T19:56:23.988Z,5.49
2023-04-04T20:01:29.599Z,5.56
2023-04-04T20:06:33.064Z,5.55
2023-04-04T20:11:37.104Z,5.55
2023-04-04T20:16:40.380Z,5.49
2023-04-04T20:21:44.284Z,5.46
2023-04-04T20:26:58.292Z,5.44
2023-04-04T20:32:04.994Z,5.41
2023-04-04T20:37:11.728Z,5.39
2023-04-04T20:42:19.810Z,5.38
2023-04-04T20:47:37.747Z,5.37
2023-04-04T20:52:43.518Z,5.36
2023-04-04T20:57:47.469Z,5.35
2023-04-04T21:02:50.745Z,5.33
2023-04-04T21:07:54.506Z,5.31
2023-04-04T21:13:01.009Z,5.30
2023-04-04T21:18:09.343Z,5.27
2023-04-04T21:23:28.027Z,5.25
2023-04-04T21:28:33.646Z,5.14
2023-04-04T21:33:38.264Z,5.03
2023-04-04T21:38:42.137Z,5.00
2023-04-04T21:44:43.613Z,4.94
2023-04-04T21:49:50.558Z,4.86
2023-04-04T21:54:54.321Z,4.78
2023-04-04T21:59:57.803Z,4.65
2023-04-04T22:05:18.161Z,4.53
2023-04-04T22:10:59.875Z,4.41
2023-04-04T22:16:21.570Z,4.31
2023-04-04T23:26:09.064Z,3.88
2023-04-04T23:37:57.977Z,3.78
2023-04-04T23:48:53.224Z,3.65
2023-04-04T23:54:01.161Z,3.62
